CheckWX is a tool to help pilots better visualize weather data.  It is not intended as a substitute for an official pre-flight weather briefing.

01:12:35 UTC

KLAX METAR
Los Angeles International Airport
Los Angeles, California, USA
Current

20 mins ago

KLAX 200053Z 27014KT 10SM FEW017 21/15 A2990 RMK AO2 SLP123 T02060150 $
Observed
Jul-20 @ 00:53 UTC
Wind
  • 270° at 14 KTS
Visibility
10 SM
Flight Rules
VFR
Cloud Levels
  • Few at 1,700' AGL
Temperature
21°C / 70°F
Dewpoint
15°C / 59°F
Humidity
69%
Altimeter
29.9" Hg
Pressure
1012.52 hPa
Previous

1 hour ago

KLAX 192353Z 26013KT 10SM FEW015 FEW150 21/15 A2991 RMK AO2 SLP128 T02060150 10228 20206 56009 $
Observed
Jul-19 @ 23:53 UTC
Wind
  • 260° at 13 KTS
Visibility
10 SM
Flight Rules
VFR
Cloud Levels
  • Few at 1,500' AGL
  • Few at 15,000' AGL
Temperature
21°C / 70°F
Dewpoint
15°C / 59°F
Humidity
69%
Altimeter
29.91" Hg
Pressure
1012.92 hPa
Previous

2 hours ago

KLAX 192253Z 26013G20KT 10SM FEW015 FEW090 SCT140 SCT180 22/14 A2992 RMK AO2 SLP130 T02170144 $
Observed
Jul-19 @ 22:53 UTC
Wind
  • 260° at 13 KTS
  • Gusting to 20 KTS
Visibility
10 SM
Flight Rules
VFR
Cloud Levels
  • Few at 1,500' AGL
  • Few at 9,000' AGL
  • Scattered at 14,000' AGL
  • Scattered at 18,000' AGL
Temperature
22°C / 72°F
Dewpoint
14°C / 57°F
Humidity
61%
Altimeter
29.92" Hg
Pressure
1013.22 hPa